createdAt,value
2019-03-02T00:00:10.519Z,928.15
2019-03-02T00:00:23.489Z,928.18
2019-03-02T00:00:39.697Z,928.17
2019-03-02T00:00:52.704Z,928.16
2019-03-02T00:01:09.666Z,928.17
2019-03-02T00:01:26.057Z,928.19
2019-03-02T00:01:39.081Z,928.19
2019-03-02T00:01:53.640Z,928.21
2019-03-02T00:02:06.655Z,928.24
2019-03-02T00:02:25.463Z,928.22
2019-03-02T00:02:38.562Z,928.25
2019-03-02T00:02:51.542Z,928.24
2019-03-02T00:03:09.424Z,928.23
2019-03-02T00:03:22.475Z,928.25
2019-03-02T00:03:39.921Z,928.22
2019-03-02T00:03:52.890Z,928.24
2019-03-02T00:04:11.088Z,928.27
2019-03-02T00:04:24.182Z,928.25
2019-03-02T00:04:37.754Z,928.26
2019-03-02T00:04:53.458Z,928.24
2019-03-02T00:05:06.505Z,928.24
2019-03-02T00:05:24.238Z,928.26
2019-03-02T00:05:37.511Z,928.28
2019-03-02T00:05:50.514Z,928.29
2019-03-02T00:06:05.278Z,928.3
2019-03-02T00:06:18.255Z,928.29
2019-03-02T00:06:35.690Z,928.3
2019-03-02T00:06:48.859Z,928.27
2019-03-02T00:07:01.934Z,928.31
2019-03-02T00:07:21.090Z,928.28
2019-03-02T00:07:34.094Z,928.33
2019-03-02T00:07:51.379Z,928.32
2019-03-02T00:08:04.353Z,928.35
2019-03-02T00:08:17.384Z,928.29
2019-03-02T00:08:33.034Z,928.31
2019-03-02T00:08:46.096Z,928.31
2019-03-02T00:09:01.881Z,928.32
2019-03-02T00:09:14.883Z,928.31
2019-03-02T00:09:27.859Z,928.31
2019-03-02T00:09:42.502Z,928.31
2019-03-02T00:09:56.003Z,928.27
2019-03-02T00:10:11.957Z,928.28
2019-03-02T00:10:25.206Z,928.28
2019-03-02T00:10:45.796Z,928.26
2019-03-02T00:10:58.900Z,928.28
2019-03-02T00:11:11.867Z,928.28
2019-03-02T00:11:28.565Z,928.26
2019-03-02T00:11:41.604Z,928.27
2019-03-02T00:11:57.774Z,928.27
2019-03-02T00:12:10.791Z,928.29
2019-03-02T00:12:23.808Z,928.26
2019-03-02T00:12:39.975Z,928.29
2019-03-02T00:12:52.532Z,928.28
2019-03-02T00:13:08.762Z,928.31
2019-03-02T00:13:21.785Z,928.3
2019-03-02T00:13:39.655Z,928.32
2019-03-02T00:13:53.560Z,928.32
2019-03-02T00:14:06.542Z,928.28
2019-03-02T00:14:23.391Z,928.3
2019-03-02T00:14:36.344Z,928.3
2019-03-02T00:14:54.020Z,928.3
2019-03-02T00:15:07.322Z,928.32
2019-03-02T00:15:20.347Z,928.36
2019-03-02T00:15:34.897Z,928.31
2019-03-02T00:15:47.462Z,928.33
2019-03-02T00:16:04.243Z,928.33
2019-03-02T00:16:18.423Z,928.32
2019-03-02T00:16:30.952Z,928.31
2019-03-02T00:16:47.571Z,928.36
2019-03-02T00:17:00.566Z,928.31
2019-03-02T00:17:19.015Z,928.31
2019-03-02T00:17:32.278Z,928.36
2019-03-02T00:17:46.710Z,928.3
2019-03-02T00:18:01.294Z,928.34
2019-03-02T00:18:14.291Z,928.32
2019-03-02T00:18:30.994Z,928.3
2019-03-02T00:18:44.068Z,928.36
2019-03-02T00:18:57.071Z,928.34
2019-03-02T00:19:16.300Z,928.38
2019-03-02T00:19:29.326Z,928.36
2019-03-02T00:19:45.708Z,928.36
2019-03-02T00:19:58.776Z,928.37
2019-03-02T00:20:14.720Z,928.4
2019-03-02T00:20:28.473Z,928.37
2019-03-02T00:20:41.540Z,928.41
2019-03-02T00:21:00.734Z,928.42
2019-03-02T00:21:13.820Z,928.41
2019-03-02T00:21:31.353Z,928.41
2019-03-02T00:21:44.545Z,928.43
2019-03-02T00:21:57.532Z,928.42
2019-03-02T00:22:16.509Z,928.46
2019-03-02T00:22:29.522Z,928.46
2019-03-02T00:22:46.566Z,928.45
2019-03-02T00:22:59.596Z,928.48
2019-03-02T00:23:15.737Z,928.46
2019-03-02T00:23:29.762Z,928.52
2019-03-02T00:23:43.648Z,928.5
2019-03-02T00:23:58.555Z,928.53
2019-03-02T00:24:11.603Z,928.51
2019-03-02T00:24:24.695Z,928.51
2019-03-02T00:24:37.698Z,928.51
2019-03-02T00:24:57.783Z,928.52
2019-03-02T00:25:11.131Z,928.55
2019-03-02T00:25:24.148Z,928.54
2019-03-02T00:25:40.885Z,928.58
2019-03-02T00:25:53.866Z,928.55
2019-03-02T00:26:11.531Z,928.58
2019-03-02T00:26:24.532Z,928.61
2019-03-02T00:26:37.543Z,928.62
2019-03-02T00:26:55.752Z,928.59
2019-03-02T00:27:08.686Z,928.64
2019-03-02T00:27:28.006Z,928.62
2019-03-02T00:27:40.987Z,928.64
2019-03-02T00:27:58.102Z,928.66
2019-03-02T00:28:11.323Z,928.66
2019-03-02T00:28:24.313Z,928.65
2019-03-02T00:28:40.459Z,928.66
2019-03-02T00:28:53.494Z,928.67
2019-03-02T00:29:11.033Z,928.71
2019-03-02T00:29:24.281Z,928.69
2019-03-02T00:29:37.306Z,928.74
2019-03-02T00:29:53.769Z,928.7
2019-03-02T00:30:06.779Z,928.73
2019-03-02T00:30:23.180Z,928.7
2019-03-02T00:30:36.184Z,928.69
2019-03-02T00:30:49.155Z,928.72
2019-03-02T00:31:05.721Z,928.67
2019-03-02T00:31:18.820Z,928.69
2019-03-02T00:31:34.515Z,928.72
2019-03-02T00:31:47.540Z,928.71
2019-03-02T00:32:00.563Z,928.72
2019-03-02T00:32:16.767Z,928.73
2019-03-02T00:32:29.723Z,928.7
2019-03-02T00:32:46.356Z,928.68
2019-03-02T00:32:59.438Z,928.7
2019-03-02T00:33:12.618Z,928.7
2019-03-02T00:33:28.041Z,928.74
2019-03-02T00:33:41.030Z,928.75
2019-03-02T00:33:56.594Z,928.72
2019-03-02T00:34:09.777Z,928.73
2019-03-02T00:34:22.827Z,928.75
2019-03-02T00:34:39.900Z,928.75
2019-03-02T00:34:53.526Z,928.76
2019-03-02T00:35:09.185Z,928.73
2019-03-02T00:35:22.184Z,928.73
2019-03-02T00:35:35.151Z,928.73
2019-03-02T00:35:50.799Z,928.7
2019-03-02T00:36:03.856Z,928.71
2019-03-02T00:36:20.564Z,928.77
2019-03-02T00:36:33.607Z,928.76
2019-03-02T00:36:46.628Z,928.73
2019-03-02T00:37:02.812Z,928.74
2019-03-02T00:37:15.785Z,928.7
2019-03-02T00:37:32.791Z,928.75
2019-03-02T00:37:45.941Z,928.72
2019-03-02T00:37:58.906Z,928.74
2019-03-02T00:38:15.985Z,928.7
2019-03-02T00:38:28.891Z,928.71
2019-03-02T00:38:45.446Z,928.7
2019-03-02T00:38:58.454Z,928.69
2019-03-02T00:39:11.723Z,928.69
2019-03-02T00:39:26.232Z,928.69
2019-03-02T00:39:39.284Z,928.73
2019-03-02T00:39:58.194Z,928.71
2019-03-02T00:40:11.798Z,928.71
2019-03-02T00:40:27.078Z,928.73
2019-03-02T00:40:41.606Z,928.71
2019-03-02T00:40:54.526Z,928.72
2019-03-02T00:41:08.840Z,928.72
2019-03-02T00:41:21.868Z,928.71
2019-03-02T00:41:34.860Z,928.73
2019-03-02T00:41:49.949Z,928.74
2019-03-02T00:42:02.981Z,928.72
2019-03-02T00:42:18.820Z,928.77
2019-03-02T00:42:31.877Z,928.78
2019-03-02T00:42:44.904Z,928.76
2019-03-02T00:42:59.861Z,928.76
2019-03-02T00:43:12.893Z,928.8
2019-03-02T00:43:28.391Z,928.77
2019-03-02T00:43:41.428Z,928.77
2019-03-02T00:43:54.462Z,928.79
2019-03-02T00:44:13.516Z,928.79
2019-03-02T00:44:26.544Z,928.81
2019-03-02T00:44:43.523Z,928.79
2019-03-02T00:44:56.561Z,928.81
2019-03-02T00:45:14.078Z,928.79
2019-03-02T00:45:27.387Z,928.81
2019-03-02T00:45:40.411Z,928.78
2019-03-02T00:45:58.416Z,928.82
2019-03-02T00:46:11.375Z,928.82
2019-03-02T00:46:27.628Z,928.8
2019-03-02T00:46:40.633Z,928.78
2019-03-02T00:46:56.264Z,928.79
2019-03-02T00:47:12.391Z,928.78
2019-03-02T00:47:25.331Z,928.79
2019-03-02T00:47:41.971Z,928.75
2019-03-02T00:47:55.051Z,928.74
2019-03-02T00:48:10.998Z,928.76
2019-03-02T00:48:25.182Z,928.75
2019-03-02T00:48:38.291Z,928.77
2019-03-02T00:48:56.732Z,928.77
2019-03-02T00:49:09.733Z,928.76
2019-03-02T00:49:24.795Z,928.74
2019-03-02T00:49:37.794Z,928.73
2019-03-02T00:49:50.780Z,928.75
2019-03-02T00:50:08.137Z,928.74
2019-03-02T00:50:20.730Z,928.75
2019-03-02T00:50:37.433Z,928.76
2019-03-02T00:50:50.500Z,928.74
2019-03-02T00:51:03.533Z,928.75
2019-03-02T00:51:18.308Z,928.74
2019-03-02T00:51:31.304Z,928.75
2019-03-02T00:51:50.428Z,928.74
2019-03-02T00:52:03.399Z,928.74
2019-03-02T00:52:16.324Z,928.77
2019-03-02T00:52:33.142Z,928.78
2019-03-02T00:52:46.198Z,928.76
2019-03-02T00:53:00.371Z,928.76
2019-03-02T00:53:13.415Z,928.8
2019-03-02T00:53:26.458Z,928.78
2019-03-02T00:53:42.666Z,928.79
2019-03-02T00:53:55.193Z,928.75
2019-03-02T00:54:11.310Z,928.77
2019-03-02T00:54:24.569Z,928.78
2019-03-02T00:54:37.647Z,928.76
2019-03-02T00:55:05.153Z,928.78
2019-03-02T00:55:18.199Z,928.8
2019-03-02T00:55:33.668Z,928.8
2019-03-02T00:55:46.795Z,928.81
2019-03-02T00:55:59.830Z,928.8
2019-03-02T00:56:15.101Z,928.8
2019-03-02T00:56:28.106Z,928.8
2019-03-02T00:56:44.781Z,928.8
2019-03-02T00:56:57.733Z,928.83
2019-03-02T00:57:10.781Z,928.82
2019-03-02T00:57:28.334Z,928.83
2019-03-02T00:57:41.370Z,928.83
2019-03-02T00:57:57.418Z,928.84
2019-03-02T00:58:10.446Z,928.85
2019-03-02T00:58:28.937Z,928.84
2019-03-02T00:58:41.627Z,928.87
2019-03-02T00:58:54.687Z,928.91
2019-03-02T00:59:11.838Z,928.91
2019-03-02T00:59:24.842Z,928.89
2019-03-02T00:59:40.532Z,928.9
2019-03-02T00:59:53.536Z,928.86
2019-03-02T01:00:06.589Z,928.89
2019-03-02T01:00:23.227Z,928.89
2019-03-02T01:00:36.255Z,928.9
2019-03-02T01:00:53.576Z,928.93
2019-03-02T01:01:06.847Z,928.9
2019-03-02T01:01:19.854Z,928.93
2019-03-02T01:01:38.533Z,928.91
2019-03-02T01:01:51.565Z,928.94
2019-03-02T01:02:08.634Z,928.93
2019-03-02T01:02:21.568Z,928.91
2019-03-02T01:02:36.719Z,928.96
2019-03-02T01:02:50.599Z,928.92
2019-03-02T01:03:03.541Z,928.94
2019-03-02T01:03:22.301Z,928.94
2019-03-02T01:03:35.281Z,928.94
2019-03-02T01:03:50.572Z,928.94
2019-03-02T01:04:03.713Z,928.95
2019-03-02T01:04:16.738Z,928.93
2019-03-02T01:04:33.845Z,928.94
2019-03-02T01:04:46.870Z,928.92
2019-03-02T01:05:06.300Z,928.96
2019-03-02T01:05:19.327Z,928.9
2019-03-02T01:05:37.194Z,928.94
2019-03-02T01:05:50.226Z,928.91
2019-03-02T01:06:03.273Z,928.92
2019-03-02T01:06:19.943Z,928.93
2019-03-02T01:06:32.953Z,928.9
2019-03-02T01:06:50.130Z,928.91
2019-03-02T01:07:03.207Z,928.91
2019-03-02T01:07:16.258Z,928.9
2019-03-02T01:07:31.633Z,928.87
2019-03-02T01:07:44.645Z,928.92
2019-03-02T01:08:03.536Z,928.89
2019-03-02T01:08:16.505Z,928.87
2019-03-02T01:08:35.004Z,928.87
2019-03-02T01:08:48.174Z,928.84
2019-03-02T01:09:01.245Z,928.86
2019-03-02T01:09:15.949Z,928.83
2019-03-02T01:09:28.971Z,928.85
2019-03-02T01:09:46.441Z,928.84
2019-03-02T01:09:59.697Z,928.85
2019-03-02T01:10:12.988Z,928.86
2019-03-02T01:10:31.734Z,928.86
2019-03-02T01:10:44.678Z,928.85
2019-03-02T01:10:59.953Z,928.85
2019-03-02T01:11:12.975Z,928.86
2019-03-02T01:11:25.946Z,928.86
2019-03-02T01:11:40.988Z,928.89
2019-03-02T01:11:53.951Z,928.9
2019-03-02T01:12:10.887Z,928.88
2019-03-02T01:12:23.849Z,928.88
2019-03-02T01:12:36.902Z,928.9
2019-03-02T01:12:52.088Z,928.9
2019-03-02T01:13:05.045Z,928.93
2019-03-02T01:13:24.066Z,928.89
2019-03-02T01:13:37.088Z,928.93
2019-03-02T01:13:50.143Z,928.91
2019-03-02T01:14:04.659Z,928.91
2019-03-02T01:14:17.692Z,928.93
2019-03-02T01:14:34.012Z,928.95
2019-03-02T01:14:46.972Z,928.93
2019-03-02T01:14:59.938Z,928.91
2019-03-02T01:15:15.750Z,928.91
2019-03-02T01:15:28.826Z,928.95
2019-03-02T01:15:45.190Z,928.94
2019-03-02T01:15:58.183Z,928.95
2019-03-02T01:16:11.192Z,928.92
2019-03-02T01:16:27.936Z,928.93
2019-03-02T01:16:40.937Z,928.96
2019-03-02T01:16:56.310Z,928.94
2019-03-02T01:17:09.354Z,928.93
2019-03-02T01:17:22.331Z,928.96
2019-03-02T01:17:38.631Z,928.96
2019-03-02T01:17:51.588Z,928.95
2019-03-02T01:18:08.630Z,928.96
2019-03-02T01:18:22.370Z,928.92
2019-03-02T01:18:38.623Z,928.96
2019-03-02T01:18:52.532Z,928.92
2019-03-02T01:19:05.612Z,928.91
2019-03-02T01:19:24.350Z,928.92
2019-03-02T01:19:37.328Z,928.92
2019-03-02T01:19:56.293Z,928.91
2019-03-02T01:20:09.484Z,928.87
2019-03-02T01:20:28.577Z,928.89
2019-03-02T01:20:41.876Z,928.86
2019-03-02T01:20:54.900Z,928.88
2019-03-02T01:21:13.593Z,928.88
2019-03-02T01:21:26.600Z,928.85
2019-03-02T01:21:42.635Z,928.85
2019-03-02T01:21:55.681Z,928.83
2019-03-02T01:22:08.666Z,928.82
2019-03-02T01:22:24.391Z,928.84
2019-03-02T01:22:37.391Z,928.83
2019-03-02T01:22:53.034Z,928.86
2019-03-02T01:23:06.044Z,928.84
2019-03-02T01:23:19.051Z,928.86
2019-03-02T01:23:34.403Z,928.84
2019-03-02T01:23:47.524Z,928.87
2019-03-02T01:24:04.569Z,928.86
2019-03-02T01:24:17.651Z,928.87
2019-03-02T01:24:30.617Z,928.88
2019-03-02T01:24:46.140Z,928.9
2019-03-02T01:24:59.161Z,928.91
2019-03-02T01:25:15.526Z,928.9
2019-03-02T01:25:28.568Z,928.95
2019-03-02T01:25:41.570Z,928.95
2019-03-02T01:25:56.000Z,928.9
2019-03-02T01:26:08.971Z,928.93
2019-03-02T01:26:25.778Z,928.99
2019-03-02T01:26:38.826Z,928.98
2019-03-02T01:26:51.329Z,929
2019-03-02T01:27:09.202Z,929.02
2019-03-02T01:27:22.203Z,929
2019-03-02T01:27:36.819Z,929.01
2019-03-02T01:27:49.805Z,929.03
2019-03-02T01:28:02.351Z,929.05
2019-03-02T01:28:19.481Z,929.06
2019-03-02T01:28:32.568Z,929.09
2019-03-02T01:28:51.360Z,929.1
2019-03-02T01:29:04.427Z,929.1
2019-03-02T01:29:20.457Z,929.07
2019-03-02T01:29:33.489Z,929.08
2019-03-02T01:29:46.462Z,929.09
2019-03-02T01:30:02.555Z,929.09
2019-03-02T01:30:15.571Z,929.12
2019-03-02T01:30:31.907Z,929.16
2019-03-02T01:30:44.856Z,929.13
2019-03-02T01:30:57.910Z,929.13
2019-03-02T01:31:12.233Z,929.14
2019-03-02T01:31:25.185Z,929.14
2019-03-02T01:31:41.855Z,929.15
2019-03-02T01:31:54.883Z,929.19
2019-03-02T01:32:07.927Z,929.17
2019-03-02T01:32:26.011Z,929.14
2019-03-02T01:32:39.026Z,929.18
2019-03-02T01:32:56.077Z,929.18
2019-03-02T01:33:09.120Z,929.16
2019-03-02T01:33:25.090Z,929.16
2019-03-02T01:33:39.309Z,929.17
2019-03-02T01:33:52.324Z,929.19
2019-03-02T01:34:12.493Z,929.21
2019-03-02T01:34:25.478Z,929.15
2019-03-02T01:34:42.233Z,929.17
2019-03-02T01:34:55.417Z,929.14
2019-03-02T01:35:08.447Z,929.14
2019-03-02T01:35:25.840Z,929.14
2019-03-02T01:35:38.868Z,929.16
2019-03-02T01:35:56.820Z,929.12
2019-03-02T01:36:09.963Z,929.15
2019-03-02T01:36:23.013Z,929.15
2019-03-02T01:36:40.373Z,929.11
2019-03-02T01:36:54.989Z,929.18
2019-03-02T01:37:10.022Z,929.14
2019-03-02T01:37:23.033Z,929.14
2019-03-02T01:37:36.067Z,929.12
2019-03-02T01:37:51.176Z,929.16
2019-03-02T01:38:04.234Z,929.18
2019-03-02T01:38:22.328Z,929.19
2019-03-02T01:38:35.399Z,929.17
2019-03-02T01:38:53.922Z,929.19
2019-03-02T01:39:07.156Z,929.18
2019-03-02T01:39:20.113Z,929.17
2019-03-02T01:39:37.068Z,929.21
2019-03-02T01:39:50.069Z,929.2
2019-03-02T01:40:06.314Z,929.19
2019-03-02T01:40:19.436Z,929.15
2019-03-02T01:40:32.591Z,929.16
2019-03-02T01:40:48.746Z,929.19
2019-03-02T01:41:01.796Z,929.2
2019-03-02T01:41:19.078Z,929.18
2019-03-02T01:41:32.165Z,929.2
2019-03-02T01:41:45.175Z,929.18
2019-03-02T01:42:03.616Z,929.16
2019-03-02T01:42:16.638Z,929.17
2019-03-02T01:42:36.457Z,929.14
2019-03-02T01:42:49.519Z,929.2
2019-03-02T01:43:06.782Z,929.17
2019-03-02T01:43:19.763Z,929.17
2019-03-02T01:43:32.815Z,929.16
2019-03-02T01:43:48.403Z,929.15
2019-03-02T01:44:01.381Z,929.15
2019-03-02T01:44:17.626Z,929.14
2019-03-02T01:44:30.608Z,929.16
2019-03-02T01:44:43.597Z,929.13
2019-03-02T01:44:59.567Z,929.18
2019-03-02T01:45:12.605Z,929.15
2019-03-02T01:45:29.051Z,929.14
2019-03-02T01:45:42.081Z,929.14
2019-03-02T01:45:55.058Z,929.13
2019-03-02T01:46:10.571Z,929.13
2019-03-02T01:46:23.525Z,929.13
2019-03-02T01:46:40.837Z,929.11
2019-03-02T01:46:53.903Z,929.13
2019-03-02T01:47:06.911Z,929.1
2019-03-02T01:47:25.499Z,929.1
2019-03-02T01:47:38.457Z,929.12
2019-03-02T01:47:54.833Z,929.11
2019-03-02T01:48:07.849Z,929.1
2019-03-02T01:48:26.475Z,929.11
2019-03-02T01:48:39.848Z,929.09
2019-03-02T01:48:52.891Z,929.09
2019-03-02T01:49:09.529Z,929.09
2019-03-02T01:49:22.524Z,929.08
2019-03-02T01:49:38.703Z,929.07
2019-03-02T01:49:51.683Z,929.08
2019-03-02T01:50:04.685Z,929.05
2019-03-02T01:50:19.652Z,929.04
2019-03-02T01:50:32.857Z,929.07
2019-03-02T01:50:48.996Z,929.02
2019-03-02T01:51:02.015Z,929.02
2019-03-02T01:51:14.934Z,929.06
2019-03-02T01:51:30.299Z,929.04
2019-03-02T01:51:43.360Z,929.02
2019-03-02T01:51:59.419Z,929.05
2019-03-02T01:52:12.401Z,929.04
2019-03-02T01:52:25.427Z,929.07
2019-03-02T01:52:42.225Z,929.05
2019-03-02T01:52:55.210Z,929.02
2019-03-02T01:53:13.609Z,929.05
2019-03-02T01:53:26.660Z,929.07
2019-03-02T01:53:45.556Z,929.05
2019-03-02T01:53:58.760Z,929.05
2019-03-02T01:54:11.774Z,929.03
2019-03-02T01:54:29.014Z,929.07
2019-03-02T01:54:42.028Z,929.07
2019-03-02T01:54:57.695Z,929.05
2019-03-02T01:55:10.732Z,929.04
2019-03-02T01:55:23.765Z,929.03
2019-03-02T01:55:39.136Z,929.02
2019-03-02T01:55:52.066Z,929.07
2019-03-02T01:56:08.036Z,929.06
2019-03-02T01:56:21.089Z,929.05
2019-03-02T01:56:34.155Z,929.07
2019-03-02T01:56:50.987Z,929.11
2019-03-02T01:57:04.056Z,929.11
2019-03-02T01:57:18.969Z,929.06
2019-03-02T01:57:31.973Z,929.04
2019-03-02T01:57:45.064Z,929.06
2019-03-02T01:58:00.135Z,929.06
2019-03-02T01:58:13.140Z,929.07
2019-03-02T01:58:29.200Z,929.05
2019-03-02T01:58:42.248Z,929.05
2019-03-02T01:58:55.248Z,929.03
2019-03-02T01:59:11.757Z,929.05
2019-03-02T01:59:24.767Z,929.07
2019-03-02T01:59:40.915Z,929.07
2019-03-02T01:59:53.937Z,929.06
2019-03-02T02:00:06.918Z,929.08
2019-03-02T02:00:20.979Z,929.08
2019-03-02T02:00:34.023Z,929.1
2019-03-02T02:00:50.406Z,929.06
2019-03-02T02:01:03.384Z,929.05
2019-03-02T02:01:15.863Z,929.08
2019-03-02T02:01:32.020Z,929.08
2019-03-02T02:01:45.024Z,929.1
2019-03-02T02:02:03.762Z,929.07
2019-03-02T02:02:16.791Z,929.08
2019-03-02T02:02:32.677Z,929.06
2019-03-02T02:02:46.350Z,929.05
2019-03-02T02:02:59.405Z,929.08
2019-03-02T02:03:16.993Z,929.05
2019-03-02T02:03:29.988Z,929.08
2019-03-02T02:03:48.020Z,929.06
2019-03-02T02:04:01.046Z,929.06
2019-03-02T02:04:13.996Z,929.06
2019-03-02T02:04:29.957Z,929.01
2019-03-02T02:04:42.964Z,929.04
2019-03-02T02:04:59.474Z,929.07
2019-03-02T02:05:12.500Z,929.04
2019-03-02T02:05:28.505Z,929.02
2019-03-02T02:05:44.086Z,929.03
2019-03-02T02:05:57.115Z,929.02
2019-03-02T02:06:11.550Z,929.06
2019-03-02T02:06:24.546Z,929.02
2019-03-02T02:06:42.738Z,929.03
2019-03-02T02:06:56.599Z,929.04
2019-03-02T02:07:09.632Z,929.03
2019-03-02T02:07:27.669Z,929.05
2019-03-02T02:07:40.651Z,929.04
2019-03-02T02:07:57.814Z,929.01
2019-03-02T02:08:10.776Z,929
2019-03-02T02:08:26.523Z,929.04
2019-03-02T02:08:40.639Z,929.05
2019-03-02T02:08:53.628Z,929.02
2019-03-02T02:09:09.872Z,929.04
2019-03-02T02:09:22.883Z,929.03
2019-03-02T02:09:41.539Z,929
2019-03-02T02:09:54.518Z,928.96
2019-03-02T02:10:07.562Z,929.02
2019-03-02T02:10:20.602Z,929.03
2019-03-02T02:10:33.594Z,928.99
2019-03-02T02:10:47.488Z,929
2019-03-02T02:11:00.067Z,928.96
2019-03-02T02:11:17.992Z,929
2019-03-02T02:11:31.200Z,928.95
2019-03-02T02:11:44.216Z,928.95
2019-03-02T02:12:00.300Z,928.94
2019-03-02T02:12:13.243Z,928.96
2019-03-02T02:12:30.697Z,928.91
2019-03-02T02:12:43.684Z,928.94
2019-03-02T02:12:56.727Z,928.94
2019-03-02T02:13:14.169Z,928.92
2019-03-02T02:13:27.242Z,928.94
2019-03-02T02:13:44.032Z,928.91
2019-03-02T02:13:57.105Z,928.91
2019-03-02T02:14:10.084Z,928.9
2019-03-02T02:14:25.832Z,928.9
2019-03-02T02:14:38.405Z,928.89
2019-03-02T02:14:54.400Z,928.87
2019-03-02T02:15:07.551Z,928.88
2019-03-02T02:15:20.581Z,928.9
2019-03-02T02:15:37.280Z,928.9
2019-03-02T02:15:50.309Z,928.86
2019-03-02T02:16:09.362Z,928.85
2019-03-02T02:16:22.364Z,928.87
2019-03-02T02:16:35.327Z,928.88
2019-03-02T02:16:49.755Z,928.86
2019-03-02T02:17:02.760Z,928.86
2019-03-02T02:17:19.598Z,928.85
2019-03-02T02:17:32.647Z,928.84
2019-03-02T02:17:45.640Z,928.87
2019-03-02T02:18:00.384Z,928.85
2019-03-02T02:18:13.463Z,928.88
2019-03-02T02:18:31.518Z,928.85
2019-03-02T02:18:44.452Z,928.88
2019-03-02T02:19:02.422Z,928.89
2019-03-02T02:19:15.111Z,928.87
2019-03-02T02:19:28.173Z,928.85
2019-03-02T02:19:45.344Z,928.85
2019-03-02T02:19:58.321Z,928.8
2019-03-02T02:20:14.503Z,928.84
2019-03-02T02:20:27.828Z,928.84
2019-03-02T02:20:40.809Z,928.86
2019-03-02T02:20:58.584Z,928.85
2019-03-02T02:21:11.591Z,928.83
2019-03-02T02:21:28.527Z,928.84
2019-03-02T02:21:41.560Z,928.84
2019-03-02T02:21:54.594Z,928.87
2019-03-02T02:22:10.002Z,928.87
2019-03-02T02:22:22.972Z,928.9
2019-03-02T02:22:39.701Z,928.89
2019-03-02T02:22:52.794Z,928.86
2019-03-02T02:23:05.786Z,928.88
2019-03-02T02:23:21.165Z,928.88
2019-03-02T02:23:33.711Z,928.86
2019-03-02T02:23:50.823Z,928.84
2019-03-02T02:24:03.859Z,928.9
2019-03-02T02:24:16.864Z,928.86
2019-03-02T02:24:32.731Z,928.9
2019-03-02T02:24:45.706Z,928.89
2019-03-02T02:25:02.061Z,928.93
2019-03-02T02:25:14.659Z,928.89
2019-03-02T02:25:27.674Z,928.88
2019-03-02T02:25:45.397Z,928.92
2019-03-02T02:25:58.471Z,928.88
2019-03-02T02:26:15.481Z,928.92
2019-03-02T02:26:28.489Z,928.92
2019-03-02T02:26:46.855Z,928.94
2019-03-02T02:27:00.129Z,928.94
2019-03-02T02:27:13.154Z,928.88
2019-03-02T02:27:32.156Z,928.91
2019-03-02T02:27:45.191Z,928.9
2019-03-02T02:28:01.598Z,928.93
2019-03-02T02:28:14.725Z,928.93
2019-03-02T02:28:32.215Z,928.92
2019-03-02T02:28:45.376Z,928.92
2019-03-02T02:28:58.376Z,928.9
2019-03-02T02:29:17.778Z,928.88
2019-03-02T02:29:30.811Z,928.88
2019-03-02T02:29:45.481Z,928.91
2019-03-02T02:29:58.486Z,928.87
2019-03-02T02:30:11.479Z,928.89
2019-03-02T02:30:31.996Z,928.88
2019-03-02T02:30:45.093Z,928.89
2019-03-02T02:31:07.945Z,928.89
2019-03-02T02:31:21.156Z,928.89
2019-03-02T02:31:34.132Z,928.88
2019-03-02T02:31:54.773Z,928.87
2019-03-02T02:32:07.856Z,928.9
2019-03-02T02:32:27.362Z,928.87
2019-03-02T02:32:40.341Z,928.87
2019-03-02T02:33:02.524Z,928.87
2019-03-02T02:33:16.444Z,928.86
2019-03-02T02:33:29.469Z,928.85
2019-03-02T02:33:49.736Z,928.82
2019-03-02T02:34:02.342Z,928.83
2019-03-02T02:34:23.729Z,928.83
2019-03-02T02:34:36.859Z,928.82
2019-03-02T02:34:49.931Z,928.78
2019-03-02T02:35:08.344Z,928.81
2019-03-02T02:35:21.353Z,928.78
2019-03-02T02:35:41.685Z,928.77
2019-03-02T02:35:55.781Z,928.76
2019-03-02T02:36:08.823Z,928.81
2019-03-02T02:36:28.235Z,928.78
2019-03-02T02:36:41.269Z,928.78
2019-03-02T02:37:01.591Z,928.78
2019-03-02T02:37:14.637Z,928.72
2019-03-02T02:37:32.128Z,928.77
2019-03-02T02:37:49.511Z,928.76
2019-03-02T02:38:02.547Z,928.77
2019-03-02T02:38:21.247Z,928.77
2019-03-02T02:38:34.256Z,928.74
2019-03-02T02:38:55.783Z,928.75
2019-03-02T02:39:08.868Z,928.7
2019-03-02T02:39:21.989Z,928.73
2019-03-02T02:39:40.861Z,928.73
2019-03-02T02:39:53.423Z,928.73
2019-03-02T02:40:12.440Z,928.73
2019-03-02T02:40:25.801Z,928.72
2019-03-02T02:40:38.819Z,928.74
2019-03-02T02:40:51.878Z,928.72
2019-03-02T02:41:04.929Z,928.71
2019-03-02T02:41:26.100Z,928.71
2019-03-02T02:41:39.098Z,928.7
2019-03-02T02:41:52.066Z,928.7
2019-03-02T02:42:12.580Z,928.7
2019-03-02T02:42:25.652Z,928.69
2019-03-02T02:42:45.041Z,928.68
2019-03-02T02:42:57.762Z,928.64
2019-03-02T02:43:10.756Z,928.66
2019-03-02T02:43:30.550Z,928.68
2019-03-02T02:43:43.549Z,928.69
2019-03-02T02:44:05.430Z,928.66
2019-03-02T02:44:18.485Z,928.64
2019-03-02T02:44:37.516Z,928.65
2019-03-02T02:44:51.013Z,928.62
2019-03-02T02:45:04.051Z,928.64
2019-03-02T02:45:24.730Z,928.63
2019-03-02T02:45:37.755Z,928.65
2019-03-02T02:45:55.274Z,928.63
2019-03-02T02:46:08.384Z,928.66
2019-03-02T02:46:21.353Z,928.6
2019-03-02T02:46:41.953Z,928.61
2019-03-02T02:46:55.060Z,928.63
2019-03-02T02:47:15.622Z,928.62
2019-03-02T02:47:28.670Z,928.62
2019-03-02T02:47:50.158Z,928.64
2019-03-02T02:48:04.672Z,928.59
2019-03-02T02:48:17.667Z,928.6
2019-03-02T02:48:35.606Z,928.56
2019-03-02T02:48:48.683Z,928.59
2019-03-02T02:49:11.616Z,928.62
2019-03-02T02:49:24.997Z,928.57
2019-03-02T02:49:38.273Z,928.57
2019-03-02T02:49:58.639Z,928.52
2019-03-02T02:50:11.681Z,928.55
2019-03-02T02:50:32.715Z,928.58
2019-03-02T02:50:47.206Z,928.54
2019-03-02T02:51:12.190Z,928.51
2019-03-02T02:51:25.423Z,928.53
2019-03-02T02:51:38.481Z,928.53
2019-03-02T02:51:58.995Z,928.5
2019-03-02T02:52:11.945Z,928.47
2019-03-02T02:52:31.999Z,928.49
2019-03-02T02:52:44.985Z,928.49
2019-03-02T02:53:05.828Z,928.46
2019-03-02T02:53:19.142Z,928.5
2019-03-02T02:53:32.194Z,928.49
2019-03-02T02:53:49.532Z,928.5
2019-03-02T02:54:02.594Z,928.46
2019-03-02T02:54:24.593Z,928.49
2019-03-02T02:54:37.652Z,928.47
2019-03-02T02:54:50.629Z,928.46
2019-03-02T02:55:11.796Z,928.46
2019-03-02T02:55:24.860Z,928.48
2019-03-02T02:55:42.336Z,928.48
2019-03-02T02:55:55.343Z,928.45
2019-03-02T02:56:08.417Z,928.43
2019-03-02T02:56:28.746Z,928.43
2019-03-02T02:56:44.601Z,928.45
2019-03-02T02:57:03.068Z,928.43
2019-03-02T02:57:16.118Z,928.42
2019-03-02T02:57:38.216Z,928.43
2019-03-02T02:57:51.700Z,928.43
2019-03-02T02:58:04.723Z,928.42
2019-03-02T02:58:26.999Z,928.44
2019-03-02T02:58:40.014Z,928.43
2019-03-02T02:59:02.905Z,928.44
2019-03-02T02:59:15.914Z,928.44
2019-03-02T02:59:28.973Z,928.43
2019-03-02T02:59:45.874Z,928.44
2019-03-02T02:59:58.911Z,928.39
2019-03-02T03:00:20.061Z,928.47
2019-03-02T03:00:35.616Z,928.44
2019-03-02T03:00:56.802Z,928.42
2019-03-02T03:01:09.885Z,928.42
2019-03-02T03:01:22.914Z,928.44
2019-03-02T03:01:43.292Z,928.42
2019-03-02T03:01:56.279Z,928.42
2019-03-02T03:02:12.354Z,928.38
2019-03-02T03:02:25.431Z,928.4
2019-03-02T03:02:38.443Z,928.38
2019-03-02T03:02:51.454Z,928.38
2019-03-02T03:03:04.505Z,928.38
2019-03-02T03:03:24.226Z,928.36
2019-03-02T03:03:37.286Z,928.35
2019-03-02T03:03:54.730Z,928.33
2019-03-02T03:04:11.819Z,928.3
2019-03-02T03:04:24.842Z,928.31
2019-03-02T03:04:43.344Z,928.27
2019-03-02T03:04:56.321Z,928.26
2019-03-02T03:05:15.087Z,928.24
2019-03-02T03:05:28.378Z,928.25
2019-03-02T03:05:41.383Z,928.23
2019-03-02T03:05:58.557Z,928.22